sensor_id;sensor_type;location;lat;lon;timestamp;temperature;humidity
913;DHT22;443;51.448;7.028;2023-07-13T00:02:22;21.10;65.20
913;DHT22;443;51.448;7.028;2023-07-13T00:04:51;21.10;65.80
913;DHT22;443;51.448;7.028;2023-07-13T00:07:17;21.10;66.90
913;DHT22;443;51.448;7.028;2023-07-13T00:09:45;21.10;66.30
913;DHT22;443;51.448;7.028;2023-07-13T00:12:23;21.00;64.40
913;DHT22;443;51.448;7.028;2023-07-13T00:14:50;21.00;65.40
913;DHT22;443;51.448;7.028;2023-07-13T00:17:17;21.00;66.60
913;DHT22;443;51.448;7.028;2023-07-13T00:19:43;21.00;66.00
913;DHT22;443;51.448;7.028;2023-07-13T00:22:12;21.00;66.70
913;DHT22;443;51.448;7.028;2023-07-13T00:24:39;21.00;65.10
913;DHT22;443;51.448;7.028;2023-07-13T00:27:07;21.00;66.00
913;DHT22;443;51.448;7.028;2023-07-13T00:29:34;21.00;65.20
913;DHT22;443;51.448;7.028;2023-07-13T00:32:02;21.00;66.00
913;DHT22;443;51.448;7.028;2023-07-13T00:34:29;21.00;68.20
913;DHT22;443;51.448;7.028;2023-07-13T00:36:56;21.00;66.20
913;DHT22;443;51.448;7.028;2023-07-13T00:39:24;21.00;65.60
913;DHT22;443;51.448;7.028;2023-07-13T00:41:51;20.90;64.80
913;DHT22;443;51.448;7.028;2023-07-13T00:44:20;20.90;65.50
913;DHT22;443;51.448;7.028;2023-07-13T00:46:49;20.90;65.20
913;DHT22;443;51.448;7.028;2023-07-13T00:49:19;20.90;66.20
913;DHT22;443;51.448;7.028;2023-07-13T00:51:48;20.90;67.10
913;DHT22;443;51.448;7.028;2023-07-13T00:54:19;20.90;65.70
913;DHT22;443;51.448;7.028;2023-07-13T00:56:50;20.80;65.50
913;DHT22;443;51.448;7.028;2023-07-13T00:59:19;20.90;66.10
913;DHT22;443;51.448;7.028;2023-07-13T01:01:46;20.80;63.90
913;DHT22;443;51.448;7.028;2023-07-13T01:04:14;20.80;65.70
913;DHT22;443;51.448;7.028;2023-07-13T01:06:42;20.80;65.40
913;DHT22;443;51.448;7.028;2023-07-13T01:09:10;20.70;66.00
913;DHT22;443;51.448;7.028;2023-07-13T01:11:37;20.70;65.10
913;DHT22;443;51.448;7.028;2023-07-13T01:14:05;20.70;65.20
913;DHT22;443;51.448;7.028;2023-07-13T01:16:34;20.60;64.70
913;DHT22;443;51.448;7.028;2023-07-13T01:19:01;20.60;66.00
913;DHT22;443;51.448;7.028;2023-07-13T01:21:32;20.60;64.80
913;DHT22;443;51.448;7.028;2023-07-13T01:24:00;20.60;65.00
913;DHT22;443;51.448;7.028;2023-07-13T01:26:27;20.60;66.40
913;DHT22;443;51.448;7.028;2023-07-13T01:28:54;20.70;65.20
913;DHT22;443;51.448;7.028;2023-07-13T01:31:23;20.60;65.30
913;DHT22;443;51.448;7.028;2023-07-13T01:33:49;20.60;65.30
913;DHT22;443;51.448;7.028;2023-07-13T01:36:16;20.60;65.50
913;DHT22;443;51.448;7.028;2023-07-13T01:38:44;20.70;65.80
913;DHT22;443;51.448;7.028;2023-07-13T01:41:11;20.70;69.30
913;DHT22;443;51.448;7.028;2023-07-13T01:43:38;20.70;67.50
913;DHT22;443;51.448;7.028;2023-07-13T01:46:05;20.60;65.90
913;DHT22;443;51.448;7.028;2023-07-13T01:48:31;20.60;66.10
913;DHT22;443;51.448;7.028;2023-07-13T01:50:58;20.60;63.90
913;DHT22;443;51.448;7.028;2023-07-13T01:53:25;20.50;66.00
913;DHT22;443;51.448;7.028;2023-07-13T01:55:53;20.60;65.50
913;DHT22;443;51.448;7.028;2023-07-13T01:58:20;20.60;66.40
913;DHT22;443;51.448;7.028;2023-07-13T02:00:48;20.50;66.00
913;DHT22;443;51.448;7.028;2023-07-13T02:03:15;20.50;67.40
913;DHT22;443;51.448;7.028;2023-07-13T02:05:43;20.60;67.70
913;DHT22;443;51.448;7.028;2023-07-13T02:08:10;20.60;65.90
913;DHT22;443;51.448;7.028;2023-07-13T02:10:37;20.60;66.40
913;DHT22;443;51.448;7.028;2023-07-13T02:13:06;20.60;66.80
913;DHT22;443;51.448;7.028;2023-07-13T02:15:33;20.60;68.10
913;DHT22;443;51.448;7.028;2023-07-13T02:17:59;20.40;65.40
913;DHT22;443;51.448;7.028;2023-07-13T02:20:26;20.50;66.30
913;DHT22;443;51.448;7.028;2023-07-13T02:22:53;20.50;65.40
913;DHT22;443;51.448;7.028;2023-07-13T02:25:20;20.50;65.70
913;DHT22;443;51.448;7.028;2023-07-13T02:27:46;20.50;68.60
913;DHT22;443;51.448;7.028;2023-07-13T02:30:14;20.50;68.40
913;DHT22;443;51.448;7.028;2023-07-13T02:32:41;20.40;66.30
913;DHT22;443;51.448;7.028;2023-07-13T02:35:09;20.40;65.40
913;DHT22;443;51.448;7.028;2023-07-13T02:37:36;20.40;66.30
913;DHT22;443;51.448;7.028;2023-07-13T02:40:03;20.40;66.00
913;DHT22;443;51.448;7.028;2023-07-13T02:42:34;20.40;66.10
913;DHT22;443;51.448;7.028;2023-07-13T02:45:00;20.30;65.20
913;DHT22;443;51.448;7.028;2023-07-13T02:47:28;20.30;67.90
913;DHT22;443;51.448;7.028;2023-07-13T02:49:55;20.30;66.70
913;DHT22;443;51.448;7.028;2023-07-13T02:52:22;20.30;66.10
913;DHT22;443;51.448;7.028;2023-07-13T02:54:49;20.40;68.60
913;DHT22;443;51.448;7.028;2023-07-13T02:57:16;20.40;69.30
913;DHT22;443;51.448;7.028;2023-07-13T02:59:43;20.30;67.50
913;DHT22;443;51.448;7.028;2023-07-13T03:02:09;20.30;69.20
913;DHT22;443;51.448;7.028;2023-07-13T03:04:37;20.40;71.60
913;DHT22;443;51.448;7.028;2023-07-13T03:07:05;20.30;68.20
913;DHT22;443;51.448;7.028;2023-07-13T03:09:33;20.30;69.20
913;DHT22;443;51.448;7.028;2023-07-13T03:12:00;20.20;68.90
913;DHT22;443;51.448;7.028;2023-07-13T03:14:27;20.30;68.40
913;DHT22;443;51.448;7.028;2023-07-13T03:16:54;20.20;67.60
913;DHT22;443;51.448;7.028;2023-07-13T03:19:21;20.20;68.30
913;DHT22;443;51.448;7.028;2023-07-13T03:21:49;20.20;69.30
913;DHT22;443;51.448;7.028;2023-07-13T03:24:16;20.20;69.30
913;DHT22;443;51.448;7.028;2023-07-13T03:26:42;20.20;67.90
913;DHT22;443;51.448;7.028;2023-07-13T03:29:09;20.20;68.20
913;DHT22;443;51.448;7.028;2023-07-13T03:31:38;20.20;69.80
913;DHT22;443;51.448;7.028;2023-07-13T03:34:04;20.10;69.30
913;DHT22;443;51.448;7.028;2023-07-13T03:36:32;20.10;68.30
913;DHT22;443;51.448;7.028;2023-07-13T03:39:02;20.10;70.00
913;DHT22;443;51.448;7.028;2023-07-13T03:41:29;20.10;70.50
913;DHT22;443;51.448;7.028;2023-07-13T03:43:57;20.20;73.20
913;DHT22;443;51.448;7.028;2023-07-13T03:46:24;20.20;69.80
913;DHT22;443;51.448;7.028;2023-07-13T03:48:50;20.10;70.10
913;DHT22;443;51.448;7.028;2023-07-13T03:51:18;20.10;70.40
913;DHT22;443;51.448;7.028;2023-07-13T03:53:46;20.10;73.20
913;DHT22;443;51.448;7.028;2023-07-13T03:56:16;20.10;70.30
913;DHT22;443;51.448;7.028;2023-07-13T03:58:44;20.00;68.20
913;DHT22;443;51.448;7.028;2023-07-13T04:01:12;20.00;71.80
913;DHT22;443;51.448;7.028;2023-07-13T04:03:40;20.00;69.20
913;DHT22;443;51.448;7.028;2023-07-13T04:06:11;20.00;72.60
913;DHT22;443;51.448;7.028;2023-07-13T04:08:40;20.10;70.30
913;DHT22;443;51.448;7.028;2023-07-13T04:11:07;20.10;71.20
913;DHT22;443;51.448;7.028;2023-07-13T04:13:35;20.00;68.90
913;DHT22;443;51.448;7.028;2023-07-13T04:16:02;20.00;71.40
913;DHT22;443;51.448;7.028;2023-07-13T04:18:29;20.00;72.10
913;DHT22;443;51.448;7.028;2023-07-13T04:20:55;20.00;71.40
913;DHT22;443;51.448;7.028;2023-07-13T04:23:22;20.10;71.40
913;DHT22;443;51.448;7.028;2023-07-13T04:25:51;20.00;71.80
913;DHT22;443;51.448;7.028;2023-07-13T04:28:19;20.00;72.70
913;DHT22;443;51.448;7.028;2023-07-13T04:30:47;20.00;69.90
913;DHT22;443;51.448;7.028;2023-07-13T04:33:14;20.00;71.90
913;DHT22;443;51.448;7.028;2023-07-13T04:35:42;20.00;72.00
913;DHT22;443;51.448;7.028;2023-07-13T04:38:09;19.90;69.60
913;DHT22;443;51.448;7.028;2023-07-13T04:40:37;19.90;70.80
913;DHT22;443;51.448;7.028;2023-07-13T04:43:04;19.90;69.50
913;DHT22;443;51.448;7.028;2023-07-13T04:45:30;19.90;70.10
913;DHT22;443;51.448;7.028;2023-07-13T04:47:58;20.00;69.70
913;DHT22;443;51.448;7.028;2023-07-13T04:50:25;19.90;72.50
913;DHT22;443;51.448;7.028;2023-07-13T04:52:52;20.00;72.80
913;DHT22;443;51.448;7.028;2023-07-13T04:55:19;20.00;71.90
913;DHT22;443;51.448;7.028;2023-07-13T04:57:47;20.00;71.10
913;DHT22;443;51.448;7.028;2023-07-13T05:00:14;20.00;71.00
913;DHT22;443;51.448;7.028;2023-07-13T05:02:44;20.10;72.90
913;DHT22;443;51.448;7.028;2023-07-13T05:05:13;20.10;73.80
913;DHT22;443;51.448;7.028;2023-07-13T05:07:40;20.10;70.90
913;DHT22;443;51.448;7.028;2023-07-13T05:10:08;20.00;71.20
913;DHT22;443;51.448;7.028;2023-07-13T05:12:35;20.00;71.10
913;DHT22;443;51.448;7.028;2023-07-13T05:15:02;20.10;72.30
913;DHT22;443;51.448;7.028;2023-07-13T05:17:29;20.10;73.20
913;DHT22;443;51.448;7.028;2023-07-13T05:19:56;20.10;72.00
913;DHT22;443;51.448;7.028;2023-07-13T05:22:24;20.10;72.60
913;DHT22;443;51.448;7.028;2023-07-13T05:24:50;20.10;74.50
913;DHT22;443;51.448;7.028;2023-07-13T05:27:17;20.10;72.50
913;DHT22;443;51.448;7.028;2023-07-13T05:29:44;20.10;73.80
913;DHT22;443;51.448;7.028;2023-07-13T05:32:11;20.10;74.30
913;DHT22;443;51.448;7.028;2023-07-13T05:34:37;20.10;73.10
913;DHT22;443;51.448;7.028;2023-07-13T05:37:04;20.10;72.20
913;DHT22;443;51.448;7.028;2023-07-13T05:39:33;20.10;71.80
913;DHT22;443;51.448;7.028;2023-07-13T05:41:59;20.10;71.80
913;DHT22;443;51.448;7.028;2023-07-13T05:44:26;20.10;73.50
913;DHT22;443;51.448;7.028;2023-07-13T05:46:53;20.10;73.70
913;DHT22;443;51.448;7.028;2023-07-13T05:49:21;20.10;74.00
913;DHT22;443;51.448;7.028;2023-07-13T05:51:48;20.10;74.00
913;DHT22;443;51.448;7.028;2023-07-13T05:54:15;20.10;72.60
913;DHT22;443;51.448;7.028;2023-07-13T05:56:43;20.10;71.90
913;DHT22;443;51.448;7.028;2023-07-13T05:59:10;20.10;73.90
913;DHT22;443;51.448;7.028;2023-07-13T06:01:36;20.10;74.30
913;DHT22;443;51.448;7.028;2023-07-13T06:04:03;20.10;74.70
913;DHT22;443;51.448;7.028;2023-07-13T06:06:30;20.10;73.80
913;DHT22;443;51.448;7.028;2023-07-13T06:08:57;20.10;73.60
913;DHT22;443;51.448;7.028;2023-07-13T06:11:25;20.20;73.70
913;DHT22;443;51.448;7.028;2023-07-13T06:13:54;20.10;73.40
913;DHT22;443;51.448;7.028;2023-07-13T06:16:21;20.10;74.40
913;DHT22;443;51.448;7.028;2023-07-13T06:18:48;20.10;73.00
913;DHT22;443;51.448;7.028;2023-07-13T06:21:17;20.10;73.50
913;DHT22;443;51.448;7.028;2023-07-13T06:23:45;20.20;72.80
913;DHT22;443;51.448;7.028;2023-07-13T06:26:13;20.20;73.10
913;DHT22;443;51.448;7.028;2023-07-13T06:28:39;20.10;73.50
913;DHT22;443;51.448;7.028;2023-07-13T06:31:09;20.10;73.50
913;DHT22;443;51.448;7.028;2023-07-13T06:33:36;20.20;73.60
913;DHT22;443;51.448;7.028;2023-07-13T06:36:04;20.20;74.00
913;DHT22;443;51.448;7.028;2023-07-13T06:38:32;20.20;72.10
913;DHT22;443;51.448;7.028;2023-07-13T06:40:59;20.20;74.00
913;DHT22;443;51.448;7.028;2023-07-13T06:43:25;20.20;73.80
913;DHT22;443;51.448;7.028;2023-07-13T06:45:55;20.20;74.50
913;DHT22;443;51.448;7.028;2023-07-13T06:48:23;20.20;73.00
913;DHT22;443;51.448;7.028;2023-07-13T06:50:51;20.30;74.50
913;DHT22;443;51.448;7.028;2023-07-13T06:53:19;20.20;72.90
913;DHT22;443;51.448;7.028;2023-07-13T06:55:46;20.20;72.50
913;DHT22;443;51.448;7.028;2023-07-13T06:58:17;20.30;74.10
913;DHT22;443;51.448;7.028;2023-07-13T07:00:45;20.30;72.30
913;DHT22;443;51.448;7.028;2023-07-13T07:03:11;20.30;74.00
913;DHT22;443;51.448;7.028;2023-07-13T07:05:40;20.30;73.30
913;DHT22;443;51.448;7.028;2023-07-13T07:08:07;20.30;74.50
913;DHT22;443;51.448;7.028;2023-07-13T07:10:34;20.40;74.60
913;DHT22;443;51.448;7.028;2023-07-13T07:13:02;20.30;73.50
913;DHT22;443;51.448;7.028;2023-07-13T07:15:29;20.40;73.20
913;DHT22;443;51.448;7.028;2023-07-13T07:17:56;20.40;73.10
913;DHT22;443;51.448;7.028;2023-07-13T07:20:23;20.40;74.10
913;DHT22;443;51.448;7.028;2023-07-13T07:22:51;20.40;74.50
913;DHT22;443;51.448;7.028;2023-07-13T07:25:18;20.50;73.90
913;DHT22;443;51.448;7.028;2023-07-13T07:27:45;20.50;73.90
913;DHT22;443;51.448;7.028;2023-07-13T07:30:12;20.50;73.90
913;DHT22;443;51.448;7.028;2023-07-13T07:32:39;20.40;74.10
913;DHT22;443;51.448;7.028;2023-07-13T07:35:07;20.50;73.90
913;DHT22;443;51.448;7.028;2023-07-13T07:37:34;20.50;73.90
913;DHT22;443;51.448;7.028;2023-07-13T07:40:02;20.50;74.10
913;DHT22;443;51.448;7.028;2023-07-13T07:42:29;20.50;73.60
913;DHT22;443;51.448;7.028;2023-07-13T07:44:56;20.50;73.40
913;DHT22;443;51.448;7.028;2023-07-13T07:47:22;20.50;74.30
913;DHT22;443;51.448;7.028;2023-07-13T07:49:49;20.50;74.20
913;DHT22;443;51.448;7.028;2023-07-13T07:52:16;20.50;73.40
913;DHT22;443;51.448;7.028;2023-07-13T07:54:43;20.50;73.20
913;DHT22;443;51.448;7.028;2023-07-13T07:57:11;20.60;73.90
913;DHT22;443;51.448;7.028;2023-07-13T07:59:38;20.60;73.50
913;DHT22;443;51.448;7.028;2023-07-13T08:02:05;20.60;74.40
913;DHT22;443;51.448;7.028;2023-07-13T08:04:32;20.60;73.70
913;DHT22;443;51.448;7.028;2023-07-13T08:06:59;20.60;73.30
913;DHT22;443;51.448;7.028;2023-07-13T08:09:28;20.60;74.30
913;DHT22;443;51.448;7.028;2023-07-13T08:11:55;20.70;73.70
913;DHT22;443;51.448;7.028;2023-07-13T08:14:23;20.60;73.60
913;DHT22;443;51.448;7.028;2023-07-13T08:16:49;20.70;74.00
913;DHT22;443;51.448;7.028;2023-07-13T08:19:16;20.70;72.90
913;DHT22;443;51.448;7.028;2023-07-13T08:21:43;20.70;74.50
913;DHT22;443;51.448;7.028;2023-07-13T08:24:10;20.70;74.20
913;DHT22;443;51.448;7.028;2023-07-13T08:26:37;20.70;73.80
913;DHT22;443;51.448;7.028;2023-07-13T08:29:03;20.70;74.00
913;DHT22;443;51.448;7.028;2023-07-13T08:31:32;20.70;74.60
913;DHT22;443;51.448;7.028;2023-07-13T08:33:58;20.70;74.50
913;DHT22;443;51.448;7.028;2023-07-13T08:36:25;20.70;73.60
913;DHT22;443;51.448;7.028;2023-07-13T08:38:53;20.70;73.50
913;DHT22;443;51.448;7.028;2023-07-13T08:41:20;20.80;74.50
913;DHT22;443;51.448;7.028;2023-07-13T08:43:50;20.70;73.70
913;DHT22;443;51.448;7.028;2023-07-13T08:46:20;20.70;74.40
913;DHT22;443;51.448;7.028;2023-07-13T08:48:53;20.70;73.70
913;DHT22;443;51.448;7.028;2023-07-13T08:51:38;20.80;73.90
913;DHT22;443;51.448;7.028;2023-07-13T08:54:12;20.80;74.10
913;DHT22;443;51.448;7.028;2023-07-13T08:56:43;20.80;73.90
913;DHT22;443;51.448;7.028;2023-07-13T08:59:13;20.70;73.70
913;DHT22;443;51.448;7.028;2023-07-13T09:01:58;20.80;73.80
913;DHT22;443;51.448;7.028;2023-07-13T09:04:32;20.80;73.60
913;DHT22;443;51.448;7.028;2023-07-13T09:07:06;20.80;74.20
913;DHT22;443;51.448;7.028;2023-07-13T09:09:49;20.80;74.30
913;DHT22;443;51.448;7.028;2023-07-13T09:12:20;20.80;73.80
913;DHT22;443;51.448;7.028;2023-07-13T09:14:53;20.80;73.60
913;DHT22;443;51.448;7.028;2023-07-13T09:17:23;20.80;74.00
913;DHT22;443;51.448;7.028;2023-07-13T09:19:58;20.80;74.60
913;DHT22;443;51.448;7.028;2023-07-13T09:22:27;20.90;74.50
913;DHT22;443;51.448;7.028;2023-07-13T09:25:00;20.90;74.90
913;DHT22;443;51.448;7.028;2023-07-13T09:27:31;20.90;74.10
913;DHT22;443;51.448;7.028;2023-07-13T09:30:10;20.90;73.90
913;DHT22;443;51.448;7.028;2023-07-13T09:32:50;20.90;74.10
913;DHT22;443;51.448;7.028;2023-07-13T09:35:20;20.90;74.10
913;DHT22;443;51.448;7.028;2023-07-13T09:37:48;20.90;74.70
913;DHT22;443;51.448;7.028;2023-07-13T09:40:24;20.80;74.00
913;DHT22;443;51.448;7.028;2023-07-13T09:42:53;20.90;75.20
913;DHT22;443;51.448;7.028;2023-07-13T09:45:27;20.90;74.30
913;DHT22;443;51.448;7.028;2023-07-13T09:47:59;20.90;74.70
913;DHT22;443;51.448;7.028;2023-07-13T09:50:27;21.00;74.50
913;DHT22;443;51.448;7.028;2023-07-13T09:52:55;20.90;75.20
913;DHT22;443;51.448;7.028;2023-07-13T09:55:27;20.90;74.80
913;DHT22;443;51.448;7.028;2023-07-13T09:57:55;20.90;75.20
913;DHT22;443;51.448;7.028;2023-07-13T10:00:25;21.00;75.10
913;DHT22;443;51.448;7.028;2023-07-13T10:02:59;20.90;74.30
913;DHT22;443;51.448;7.028;2023-07-13T10:05:28;21.00;74.30
913;DHT22;443;51.448;7.028;2023-07-13T10:08:03;21.00;74.40
913;DHT22;443;51.448;7.028;2023-07-13T10:10:32;21.00;74.10
913;DHT22;443;51.448;7.028;2023-07-13T10:13:00;21.00;74.60
913;DHT22;443;51.448;7.028;2023-07-13T10:15:30;21.00;74.50
913;DHT22;443;51.448;7.028;2023-07-13T10:17:57;21.00;75.10
913;DHT22;443;51.448;7.028;2023-07-13T10:20:24;21.00;74.70
913;DHT22;443;51.448;7.028;2023-07-13T10:22:56;21.00;74.40
913;DHT22;443;51.448;7.028;2023-07-13T10:25:26;21.00;74.90
913;DHT22;443;51.448;7.028;2023-07-13T10:27:58;21.00;75.10
913;DHT22;443;51.448;7.028;2023-07-13T10:30:31;21.00;74.60
913;DHT22;443;51.448;7.028;2023-07-13T10:33:02;21.00;74.40
913;DHT22;443;51.448;7.028;2023-07-13T10:35:30;21.00;75.20
913;DHT22;443;51.448;7.028;2023-07-13T10:38:02;21.00;75.00
913;DHT22;443;51.448;7.028;2023-07-13T10:40:36;21.00;74.40
913;DHT22;443;51.448;7.028;2023-07-13T10:43:12;21.00;74.00
913;DHT22;443;51.448;7.028;2023-07-13T10:45:40;21.00;75.00
913;DHT22;443;51.448;7.028;2023-07-13T10:48:10;21.10;74.40
913;DHT22;443;51.448;7.028;2023-07-13T10:50:41;21.10;74.40
913;DHT22;443;51.448;7.028;2023-07-13T10:53:20;21.10;74.10
913;DHT22;443;51.448;7.028;2023-07-13T10:55:59;21.10;74.80
913;DHT22;443;51.448;7.028;2023-07-13T10:58:33;21.10;74.80
913;DHT22;443;51.448;7.028;2023-07-13T11:01:06;21.10;74.40
913;DHT22;443;51.448;7.028;2023-07-13T11:03:36;21.10;74.80
913;DHT22;443;51.448;7.028;2023-07-13T11:06:09;21.00;73.90
913;DHT22;443;51.448;7.028;2023-07-13T11:08:51;21.10;74.20
913;DHT22;443;51.448;7.028;2023-07-13T11:11:36;21.10;74.40
913;DHT22;443;51.448;7.028;2023-07-13T11:14:09;21.10;74.00
913;DHT22;443;51.448;7.028;2023-07-13T11:16:51;21.10;74.30
913;DHT22;443;51.448;7.028;2023-07-13T11:22:19;21.10;74.20
913;DHT22;443;51.448;7.028;2023-07-13T11:24:56;21.10;74.80
913;DHT22;443;51.448;7.028;2023-07-13T11:27:35;21.10;74.10
913;DHT22;443;51.448;7.028;2023-07-13T11:30:24;21.10;74.00
913;DHT22;443;51.448;7.028;2023-07-13T11:33:03;21.10;73.90
913;DHT22;443;51.448;7.028;2023-07-13T11:35:34;21.10;74.60
913;DHT22;443;51.448;7.028;2023-07-13T11:38:02;21.10;74.00
913;DHT22;443;51.448;7.028;2023-07-13T11:40:36;21.10;73.20
913;DHT22;443;51.448;7.028;2023-07-13T11:43:06;21.10;73.70
913;DHT22;443;51.448;7.028;2023-07-13T11:45:33;21.10;74.00
913;DHT22;443;51.448;7.028;2023-07-13T11:48:00;21.20;74.20
913;DHT22;443;51.448;7.028;2023-07-13T11:50:27;21.20;73.90
913;DHT22;443;51.448;7.028;2023-07-13T11:52:54;21.20;74.20
913;DHT22;443;51.448;7.028;2023-07-13T11:55:22;21.20;74.20
913;DHT22;443;51.448;7.028;2023-07-13T11:57:56;21.20;73.80
913;DHT22;443;51.448;7.028;2023-07-13T12:00:26;21.20;73.10
913;DHT22;443;51.448;7.028;2023-07-13T12:02:57;21.20;73.50
913;DHT22;443;51.448;7.028;2023-07-13T12:05:26;21.20;73.20
913;DHT22;443;51.448;7.028;2023-07-13T12:07:53;21.20;73.60
913;DHT22;443;51.448;7.028;2023-07-13T12:10:22;21.20;73.60
913;DHT22;443;51.448;7.028;2023-07-13T12:12:55;21.20;73.30
913;DHT22;443;51.448;7.028;2023-07-13T12:15:27;21.30;73.10
913;DHT22;443;51.448;7.028;2023-07-13T12:17:56;21.30;73.90
913;DHT22;443;51.448;7.028;2023-07-13T12:20:25;21.30;74.60
913;DHT22;443;51.448;7.028;2023-07-13T12:22:52;21.30;73.50
913;DHT22;443;51.448;7.028;2023-07-13T12:25:20;21.30;73.40
913;DHT22;443;51.448;7.028;2023-07-13T12:27:48;21.30;74.50
913;DHT22;443;51.448;7.028;2023-07-13T12:30:25;21.30;74.10
913;DHT22;443;51.448;7.028;2023-07-13T12:33:00;21.30;72.10
913;DHT22;443;51.448;7.028;2023-07-13T12:35:29;21.40;72.60
913;DHT22;443;51.448;7.028;2023-07-13T12:38:00;21.40;73.00
913;DHT22;443;51.448;7.028;2023-07-13T12:40:32;21.40;72.70
913;DHT22;443;51.448;7.028;2023-07-13T12:43:00;21.40;72.10
913;DHT22;443;51.448;7.028;2023-07-13T12:45:31;21.40;72.40
913;DHT22;443;51.448;7.028;2023-07-13T12:47:59;21.40;72.60
913;DHT22;443;51.448;7.028;2023-07-13T12:50:34;21.40;72.70
913;DHT22;443;51.448;7.028;2023-07-13T12:53:05;21.40;73.30
913;DHT22;443;51.448;7.028;2023-07-13T12:55:41;21.40;73.50
913;DHT22;443;51.448;7.028;2023-07-13T12:58:16;21.40;72.20
913;DHT22;443;51.448;7.028;2023-07-13T13:00:50;21.30;72.80
913;DHT22;443;51.448;7.028;2023-07-13T13:03:24;21.30;73.40
913;DHT22;443;51.448;7.028;2023-07-13T13:05:57;21.30;72.60
913;DHT22;443;51.448;7.028;2023-07-13T13:08:25;21.30;73.60
913;DHT22;443;51.448;7.028;2023-07-13T13:10:52;21.30;72.60
913;DHT22;443;51.448;7.028;2023-07-13T13:13:19;21.30;72.80
913;DHT22;443;51.448;7.028;2023-07-13T13:15:46;21.30;72.40
913;DHT22;443;51.448;7.028;2023-07-13T13:18:17;21.30;72.60
913;DHT22;443;51.448;7.028;2023-07-13T13:20:43;21.30;73.20
913;DHT22;443;51.448;7.028;2023-07-13T13:23:13;21.30;72.90
913;DHT22;443;51.448;7.028;2023-07-13T13:25:40;21.30;74.50
913;DHT22;443;51.448;7.028;2023-07-13T13:28:13;21.20;73.80
913;DHT22;443;51.448;7.028;2023-07-13T13:30:40;21.30;74.10
913;DHT22;443;51.448;7.028;2023-07-13T13:33:09;21.30;74.70
913;DHT22;443;51.448;7.028;2023-07-13T13:35:39;21.20;75.00
913;DHT22;443;51.448;7.028;2023-07-13T13:38:11;21.20;75.00
913;DHT22;443;51.448;7.028;2023-07-13T13:40:37;21.20;75.10
913;DHT22;443;51.448;7.028;2023-07-13T13:43:14;21.20;75.40
913;DHT22;443;51.448;7.028;2023-07-13T13:45:41;21.20;75.20
913;DHT22;443;51.448;7.028;2023-07-13T13:48:14;21.20;75.20
913;DHT22;443;51.448;7.028;2023-07-13T13:50:42;21.30;75.10
913;DHT22;443;51.448;7.028;2023-07-13T13:53:11;21.30;75.10
913;DHT22;443;51.448;7.028;2023-07-13T13:55:39;21.30;74.80
913;DHT22;443;51.448;7.028;2023-07-13T13:58:07;21.40;75.10
913;DHT22;443;51.448;7.028;2023-07-13T14:00:34;21.40;75.00
913;DHT22;443;51.448;7.028;2023-07-13T14:03:01;21.40;74.80
913;DHT22;443;51.448;7.028;2023-07-13T14:05:28;21.50;74.90
913;DHT22;443;51.448;7.028;2023-07-13T14:07:57;21.40;74.90
913;DHT22;443;51.448;7.028;2023-07-13T14:10:25;21.40;75.10
913;DHT22;443;51.448;7.028;2023-07-13T14:12:54;21.30;75.10
913;DHT22;443;51.448;7.028;2023-07-13T14:15:23;21.30;75.20
913;DHT22;443;51.448;7.028;2023-07-13T14:17:50;21.30;75.60
913;DHT22;443;51.448;7.028;2023-07-13T14:20:18;21.30;75.60
913;DHT22;443;51.448;7.028;2023-07-13T14:22:45;21.30;75.60
913;DHT22;443;51.448;7.028;2023-07-13T14:25:15;21.30;75.50
913;DHT22;443;51.448;7.028;2023-07-13T14:27:43;21.30;75.70
913;DHT22;443;51.448;7.028;2023-07-13T14:30:13;21.20;75.60
913;DHT22;443;51.448;7.028;2023-07-13T14:32:41;21.30;76.00
913;DHT22;443;51.448;7.028;2023-07-13T14:35:10;21.30;75.70
913;DHT22;443;51.448;7.028;2023-07-13T14:37:38;21.20;75.70
913;DHT22;443;51.448;7.028;2023-07-13T14:40:14;21.20;75.60
913;DHT22;443;51.448;7.028;2023-07-13T14:42:41;21.30;75.70
913;DHT22;443;51.448;7.028;2023-07-13T14:45:18;21.30;75.60
913;DHT22;443;51.448;7.028;2023-07-13T14:47:46;21.30;75.70
913;DHT22;443;51.448;7.028;2023-07-13T14:50:16;21.20;75.70
913;DHT22;443;51.448;7.028;2023-07-13T14:52:44;21.30;75.80
913;DHT22;443;51.448;7.028;2023-07-13T14:55:11;21.30;75.90
913;DHT22;443;51.448;7.028;2023-07-13T14:57:39;21.20;75.90
913;DHT22;443;51.448;7.028;2023-07-13T15:00:13;21.20;75.90
913;DHT22;443;51.448;7.028;2023-07-13T15:02:41;21.20;75.90
913;DHT22;443;51.448;7.028;2023-07-13T15:05:14;21.30;75.90
913;DHT22;443;51.448;7.028;2023-07-13T15:07:41;21.30;75.80
913;DHT22;443;51.448;7.028;2023-07-13T15:10:14;21.30;75.70
913;DHT22;443;51.448;7.028;2023-07-13T15:12:42;21.30;75.80
913;DHT22;443;51.448;7.028;2023-07-13T15:15:09;21.20;75.70
913;DHT22;443;51.448;7.028;2023-07-13T15:17:38;21.30;76.00
913;DHT22;443;51.448;7.028;2023-07-13T15:20:18;21.30;76.10
913;DHT22;443;51.448;7.028;2023-07-13T15:22:46;21.30;76.20
913;DHT22;443;51.448;7.028;2023-07-13T15:25:17;21.20;76.10
913;DHT22;443;51.448;7.028;2023-07-13T15:27:45;21.20;76.10
913;DHT22;443;51.448;7.028;2023-07-13T15:30:12;21.20;76.20
913;DHT22;443;51.448;7.028;2023-07-13T15:32:40;21.20;76.20
913;DHT22;443;51.448;7.028;2023-07-13T15:35:13;21.20;76.40
913;DHT22;443;51.448;7.028;2023-07-13T15:37:41;21.20;76.30
913;DHT22;443;51.448;7.028;2023-07-13T15:40:09;21.20;76.40
913;DHT22;443;51.448;7.028;2023-07-13T15:42:37;21.20;76.10
913;DHT22;443;51.448;7.028;2023-07-13T15:45:14;21.30;76.60
913;DHT22;443;51.448;7.028;2023-07-13T15:47:42;21.20;76.80
913;DHT22;443;51.448;7.028;2023-07-13T15:50:12;21.20;76.90
913;DHT22;443;51.448;7.028;2023-07-13T15:52:39;21.20;77.00
913;DHT22;443;51.448;7.028;2023-07-13T15:55:10;21.10;76.80
913;DHT22;443;51.448;7.028;2023-07-13T15:57:37;21.10;76.90
913;DHT22;443;51.448;7.028;2023-07-13T16:00:16;21.20;77.00
913;DHT22;443;51.448;7.028;2023-07-13T16:02:44;21.10;77.00
913;DHT22;443;51.448;7.028;2023-07-13T16:05:10;21.10;77.20
913;DHT22;443;51.448;7.028;2023-07-13T16:07:37;21.10;77.20
913;DHT22;443;51.448;7.028;2023-07-13T16:10:05;21.10;77.20
913;DHT22;443;51.448;7.028;2023-07-13T16:12:32;21.10;77.30
913;DHT22;443;51.448;7.028;2023-07-13T16:15:00;21.10;77.30
913;DHT22;443;51.448;7.028;2023-07-13T16:17:28;21.10;77.40
913;DHT22;443;51.448;7.028;2023-07-13T16:19:55;21.10;77.50
913;DHT22;443;51.448;7.028;2023-07-13T16:22:24;21.10;76.80
913;DHT22;443;51.448;7.028;2023-07-13T16:24:51;21.10;77.40
913;DHT22;443;51.448;7.028;2023-07-13T16:27:21;21.10;77.70
913;DHT22;443;51.448;7.028;2023-07-13T16:29:49;21.10;76.80
913;DHT22;443;51.448;7.028;2023-07-13T16:32:16;21.10;76.90
913;DHT22;443;51.448;7.028;2023-07-13T16:34:44;21.10;76.70
913;DHT22;443;51.448;7.028;2023-07-13T16:37:14;21.10;76.90
913;DHT22;443;51.448;7.028;2023-07-13T16:39:45;21.10;77.20
913;DHT22;443;51.448;7.028;2023-07-13T16:42:12;21.10;78.00
913;DHT22;443;51.448;7.028;2023-07-13T16:44:39;21.00;77.70
913;DHT22;443;51.448;7.028;2023-07-13T16:47:12;21.00;77.70
913;DHT22;443;51.448;7.028;2023-07-13T16:49:39;21.00;77.80